sensor_id;sensor_type;location;lat;lon;timestamp;P1;P2;P0
74880;PMS5003;63427;49.654;6.596;2024-02-14T00:00:52;5;5;
74880;PMS5003;63427;49.654;6.596;2024-02-14T00:05:43;4;4;
74880;PMS5003;63427;49.654;6.596;2024-02-14T00:08:09;3;3;
74880;PMS5003;63427;49.654;6.596;2024-02-14T00:10:34;5;5;
74880;PMS5003;63427;49.654;6.596;2024-02-14T00:13:01;5;4;
74880;PMS5003;63427;49.654;6.596;2024-02-14T00:15:25;4;4;
74880;PMS5003;63427;49.654;6.596;2024-02-14T00:17:51;4;4;
74880;PMS5003;63427;49.654;6.596;2024-02-14T00:20:17;6;4;
74880;PMS5003;63427;49.654;6.596;2024-02-14T00:32:38;4;4;
74880;PMS5003;63427;49.654;6.596;2024-02-14T00:34:50;4;4;
74880;PMS5003;63427;49.654;6.596;2024-02-14T00:37:16;5;5;
74880;PMS5003;63427;49.654;6.596;2024-02-14T00:39:41;5;5;
74880;PMS5003;63427;49.654;6.596;2024-02-14T00:42:07;7;7;
74880;PMS5003;63427;49.654;6.596;2024-02-14T00:49:24;5;5;
74880;PMS5003;63427;49.654;6.596;2024-02-14T00:51:49;3;3;
74880;PMS5003;63427;49.654;6.596;2024-02-14T00:56:40;5;5;
74880;PMS5003;63427;49.654;6.596;2024-02-14T00:59:06;10;10;
74880;PMS5003;63427;49.654;6.596;2024-02-14T01:01:31;4;4;
74880;PMS5003;63427;49.654;6.596;2024-02-14T01:03:57;7;6;
74880;PMS5003;63427;49.654;6.596;2024-02-14T01:06:22;5;5;
74880;PMS5003;63427;49.654;6.596;2024-02-14T01:08:48;6;5;
74880;PMS5003;63427;49.654;6.596;2024-02-14T01:11:14;6;5;
74880;PMS5003;63427;49.654;6.596;2024-02-14T01:13:40;7;6;
74880;PMS5003;63427;49.654;6.596;2024-02-14T01:18:30;5;5;
74880;PMS5003;63427;49.654;6.596;2024-02-14T01:20:56;7;6;
74880;PMS5003;63427;49.654;6.596;2024-02-14T01:23:21;5;5;
74880;PMS5003;63427;49.654;6.596;2024-02-14T01:25:46;8;8;
74880;PMS5003;63427;49.654;6.596;2024-02-14T01:28:12;5;5;
74880;PMS5003;63427;49.654;6.596;2024-02-14T01:30:38;4;4;
74880;PMS5003;63427;49.654;6.596;2024-02-14T01:35:29;5;4;
74880;PMS5003;63427;49.654;6.596;2024-02-14T01:37:55;5;4;
74880;PMS5003;63427;49.654;6.596;2024-02-14T01:40:20;7;6;
74880;PMS5003;63427;49.654;6.596;2024-02-14T01:42:46;3;3;
74880;PMS5003;63427;49.654;6.596;2024-02-14T01:45:11;4;3;
74880;PMS5003;63427;49.654;6.596;2024-02-14T01:47:37;5;5;
74880;PMS5003;63427;49.654;6.596;2024-02-14T01:50:03;4;4;
74880;PMS5003;63427;49.654;6.596;2024-02-14T01:52:28;6;6;
74880;PMS5003;63427;49.654;6.596;2024-02-14T01:54:54;5;5;
74880;PMS5003;63427;49.654;6.596;2024-02-14T01:57:19;5;5;
74880;PMS5003;63427;49.654;6.596;2024-02-14T01:59:45;5;4;
74880;PMS5003;63427;49.654;6.596;2024-02-14T02:02:10;4;4;
74880;PMS5003;63427;49.654;6.596;2024-02-14T02:04:36;5;5;
74880;PMS5003;63427;49.654;6.596;2024-02-14T02:07:01;6;4;
74880;PMS5003;63427;49.654;6.596;2024-02-14T02:09:27;5;5;
74880;PMS5003;63427;49.654;6.596;2024-02-14T02:11:52;5;5;
74880;PMS5003;63427;49.654;6.596;2024-02-14T02:16:43;5;5;
74880;PMS5003;63427;49.654;6.596;2024-02-14T02:19:09;5;5;
74880;PMS5003;63427;49.654;6.596;2024-02-14T02:21:34;5;5;
74880;PMS5003;63427;49.654;6.596;2024-02-14T02:24:00;6;6;
74880;PMS5003;63427;49.654;6.596;2024-02-14T02:26:25;7;7;
74880;PMS5003;63427;49.654;6.596;2024-02-14T02:28:51;4;4;
74880;PMS5003;63427;49.654;6.596;2024-02-14T02:31:16;5;5;
74880;PMS5003;63427;49.654;6.596;2024-02-14T02:33:42;9;7;
74880;PMS5003;63427;49.654;6.596;2024-02-14T02:36:08;5;4;
74880;PMS5003;63427;49.654;6.596;2024-02-14T02:38:33;7;6;
74880;PMS5003;63427;49.654;6.596;2024-02-14T02:40:59;5;5;
74880;PMS5003;63427;49.654;6.596;2024-02-14T02:43:25;5;5;
74880;PMS5003;63427;49.654;6.596;2024-02-14T02:45:50;5;3;
74880;PMS5003;63427;49.654;6.596;2024-02-14T02:48:15;6;6;
74880;PMS5003;63427;49.654;6.596;2024-02-14T02:50:41;5;5;
74880;PMS5003;63427;49.654;6.596;2024-02-14T02:53:13;7;5;
74880;PMS5003;63427;49.654;6.596;2024-02-14T02:55:32;4;4;
74880;PMS5003;63427;49.654;6.596;2024-02-14T02:57:57;5;5;
74880;PMS5003;63427;49.654;6.596;2024-02-14T03:02:49;5;5;
74880;PMS5003;63427;49.654;6.596;2024-02-14T03:07:40;6;6;
74880;PMS5003;63427;49.654;6.596;2024-02-14T03:12:31;6;5;
74880;PMS5003;63427;49.654;6.596;2024-02-14T03:14:57;7;6;
74880;PMS5003;63427;49.654;6.596;2024-02-14T03:17:23;5;5;
74880;PMS5003;63427;49.654;6.596;2024-02-14T03:19:48;4;4;
74880;PMS5003;63427;49.654;6.596;2024-02-14T03:24:39;6;5;
74880;PMS5003;63427;49.654;6.596;2024-02-14T03:27:05;5;4;
74880;PMS5003;63427;49.654;6.596;2024-02-14T03:29:30;9;9;
74880;PMS5003;63427;49.654;6.596;2024-02-14T03:31:55;7;5;
74880;PMS5003;63427;49.654;6.596;2024-02-14T03:34:21;7;6;
74880;PMS5003;63427;49.654;6.596;2024-02-14T03:39:12;5;5;
74880;PMS5003;63427;49.654;6.596;2024-02-14T03:41:38;5;4;
74880;PMS5003;63427;49.654;6.596;2024-02-14T03:44:03;5;5;
74880;PMS5003;63427;49.654;6.596;2024-02-14T03:46:29;6;6;
74880;PMS5003;63427;49.654;6.596;2024-02-14T03:48:55;6;6;
74880;PMS5003;63427;49.654;6.596;2024-02-14T03:51:22;5;5;
74880;PMS5003;63427;49.654;6.596;2024-02-14T03:53:46;4;4;
74880;PMS5003;63427;49.654;6.596;2024-02-14T03:56:11;5;5;
74880;PMS5003;63427;49.654;6.596;2024-02-14T03:58:39;7;7;
74880;PMS5003;63427;49.654;6.596;2024-02-14T04:01:03;5;5;
74880;PMS5003;63427;49.654;6.596;2024-02-14T04:03:28;5;5;
74880;PMS5003;63427;49.654;6.596;2024-02-14T04:05:54;5;5;
74880;PMS5003;63427;49.654;6.596;2024-02-14T04:08:20;6;6;
74880;PMS5003;63427;49.654;6.596;2024-02-14T04:10:45;5;5;
74880;PMS5003;63427;49.654;6.596;2024-02-14T04:13:11;6;6;
74880;PMS5003;63427;49.654;6.596;2024-02-14T04:15:36;5;4;
74880;PMS5003;63427;49.654;6.596;2024-02-14T04:18:02;5;5;
74880;PMS5003;63427;49.654;6.596;2024-02-14T04:20:30;7;6;
74880;PMS5003;63427;49.654;6.596;2024-02-14T04:22:53;5;5;
74880;PMS5003;63427;49.654;6.596;2024-02-14T04:35:01;7;6;
74880;PMS5003;63427;49.654;6.596;2024-02-14T04:37:27;6;6;
74880;PMS5003;63427;49.654;6.596;2024-02-14T04:44:44;5;5;
74880;PMS5003;63427;49.654;6.596;2024-02-14T04:47:09;6;6;
74880;PMS5003;63427;49.654;6.596;2024-02-14T04:49:35;6;6;
74880;PMS5003;63427;49.654;6.596;2024-02-14T04:52:01;6;5;
74880;PMS5003;63427;49.654;6.596;2024-02-14T04:56:52;7;7;
74880;PMS5003;63427;49.654;6.596;2024-02-14T04:59:26;8;7;
74880;PMS5003;63427;49.654;6.596;2024-02-14T05:04:09;8;7;
74880;PMS5003;63427;49.654;6.596;2024-02-14T05:06:34;5;5;
74880;PMS5003;63427;49.654;6.596;2024-02-14T05:09:00;6;6;
74880;PMS5003;63427;49.654;6.596;2024-02-14T05:11:31;6;6;
74880;PMS5003;63427;49.654;6.596;2024-02-14T05:13:51;7;7;
74880;PMS5003;63427;49.654;6.596;2024-02-14T05:16:17;6;6;
74880;PMS5003;63427;49.654;6.596;2024-02-14T05:21:08;6;6;
74880;PMS5003;63427;49.654;6.596;2024-02-14T05:23:34;8;6;
74880;PMS5003;63427;49.654;6.596;2024-02-14T05:25:59;8;7;
74880;PMS5003;63427;49.654;6.596;2024-02-14T05:28:25;7;6;
74880;PMS5003;63427;49.654;6.596;2024-02-14T05:35:42;6;6;
74880;PMS5003;63427;49.654;6.596;2024-02-14T05:40:33;6;6;
74880;PMS5003;63427;49.654;6.596;2024-02-14T05:42:59;6;6;
74880;PMS5003;63427;49.654;6.596;2024-02-14T05:45:24;5;5;
74880;PMS5003;63427;49.654;6.596;2024-02-14T05:57:32;8;7;
74880;PMS5003;63427;49.654;6.596;2024-02-14T05:59:58;8;8;
74880;PMS5003;63427;49.654;6.596;2024-02-14T06:04:49;8;8;
74880;PMS5003;63427;49.654;6.596;2024-02-14T06:07:15;7;6;
74880;PMS5003;63427;49.654;6.596;2024-02-14T06:09:42;6;6;
74880;PMS5003;63427;49.654;6.596;2024-02-14T06:16:58;9;8;
74880;PMS5003;63427;49.654;6.596;2024-02-14T06:19:23;9;9;
74880;PMS5003;63427;49.654;6.596;2024-02-14T06:21:48;10;10;
74880;PMS5003;63427;49.654;6.596;2024-02-14T06:24:14;8;8;
74880;PMS5003;63427;49.654;6.596;2024-02-14T06:26:40;8;8;
74880;PMS5003;63427;49.654;6.596;2024-02-14T06:29:05;7;7;
74880;PMS5003;63427;49.654;6.596;2024-02-14T06:31:31;8;7;
74880;PMS5003;63427;49.654;6.596;2024-02-14T06:33:56;8;8;
74880;PMS5003;63427;49.654;6.596;2024-02-14T06:38:47;7;7;
74880;PMS5003;63427;49.654;6.596;2024-02-14T06:41:13;10;9;
74880;PMS5003;63427;49.654;6.596;2024-02-14T06:43:40;8;8;
74880;PMS5003;63427;49.654;6.596;2024-02-14T06:46:04;7;7;
74880;PMS5003;63427;49.654;6.596;2024-02-14T06:50:55;8;8;
74880;PMS5003;63427;49.654;6.596;2024-02-14T06:53:21;7;7;
74880;PMS5003;63427;49.654;6.596;2024-02-14T06:55:46;8;7;
74880;PMS5003;63427;49.654;6.596;2024-02-14T06:58:12;6;6;
74880;PMS5003;63427;49.654;6.596;2024-02-14T07:00:40;8;8;
74880;PMS5003;63427;49.654;6.596;2024-02-14T07:03:03;6;6;
74880;PMS5003;63427;49.654;6.596;2024-02-14T07:05:40;8;8;
74880;PMS5003;63427;49.654;6.596;2024-02-14T07:07:54;9;9;
74880;PMS5003;63427;49.654;6.596;2024-02-14T07:10:21;8;8;
74880;PMS5003;63427;49.654;6.596;2024-02-14T07:12:45;7;6;
74880;PMS5003;63427;49.654;6.596;2024-02-14T07:17:37;6;5;
74880;PMS5003;63427;49.654;6.596;2024-02-14T07:20:02;6;5;
74880;PMS5003;63427;49.654;6.596;2024-02-14T07:22:28;7;6;
74880;PMS5003;63427;49.654;6.596;2024-02-14T07:27:19;4;4;
74880;PMS5003;63427;49.654;6.596;2024-02-14T07:29:45;3;3;
74880;PMS5003;63427;49.654;6.596;2024-02-14T07:32:10;4;4;
74880;PMS5003;63427;49.654;6.596;2024-02-14T07:34:38;5;5;
74880;PMS5003;63427;49.654;6.596;2024-02-14T07:37:01;4;4;
74880;PMS5003;63427;49.654;6.596;2024-02-14T07:39:27;5;5;
74880;PMS5003;63427;49.654;6.596;2024-02-14T07:42:02;4;4;
74880;PMS5003;63427;49.654;6.596;2024-02-14T07:44:18;3;3;
74880;PMS5003;63427;49.654;6.596;2024-02-14T07:46:44;7;7;
74880;PMS5003;63427;49.654;6.596;2024-02-14T07:49:09;3;2;
74880;PMS5003;63427;49.654;6.596;2024-02-14T07:54:00;3;3;
74880;PMS5003;63427;49.654;6.596;2024-02-14T07:56:26;3;3;
74880;PMS5003;63427;49.654;6.596;2024-02-14T07:58:52;3;2;
74880;PMS5003;63427;49.654;6.596;2024-02-14T08:01:17;3;3;
74880;PMS5003;63427;49.654;6.596;2024-02-14T08:03:43;3;3;
74880;PMS5003;63427;49.654;6.596;2024-02-14T08:06:08;2;2;
74880;PMS5003;63427;49.654;6.596;2024-02-14T08:08:34;4;4;
74880;PMS5003;63427;49.654;6.596;2024-02-14T08:10:59;4;4;
74880;PMS5003;63427;49.654;6.596;2024-02-14T08:15:50;2;2;
74880;PMS5003;63427;49.654;6.596;2024-02-14T08:18:16;3;3;
74880;PMS5003;63427;49.654;6.596;2024-02-14T08:20:42;3;3;
74880;PMS5003;63427;49.654;6.596;2024-02-14T08:23:07;3;3;
74880;PMS5003;63427;49.654;6.596;2024-02-14T08:25:33;4;3;
74880;PMS5003;63427;49.654;6.596;2024-02-14T08:27:58;4;4;
74880;PMS5003;63427;49.654;6.596;2024-02-14T08:30:24;4;4;
74880;PMS5003;63427;49.654;6.596;2024-02-14T08:32:49;4;4;
74880;PMS5003;63427;49.654;6.596;2024-02-14T08:45:01;4;4;
74880;PMS5003;63427;49.654;6.596;2024-02-14T08:47:23;4;4;
74880;PMS5003;63427;49.654;6.596;2024-02-14T08:54:42;5;5;
74880;PMS5003;63427;49.654;6.596;2024-02-14T08:57:05;4;4;
74880;PMS5003;63427;49.654;6.596;2024-02-14T08:59:30;5;5;
74880;PMS5003;63427;49.654;6.596;2024-02-14T09:01:56;4;4;
74880;PMS5003;63427;49.654;6.596;2024-02-14T09:04:22;8;8;
74880;PMS5003;63427;49.654;6.596;2024-02-14T09:09:13;7;7;
74880;PMS5003;63427;49.654;6.596;2024-02-14T09:11:38;7;7;
74880;PMS5003;63427;49.654;6.596;2024-02-14T09:14:03;7;7;
74880;PMS5003;63427;49.654;6.596;2024-02-14T09:19:01;7;7;
74880;PMS5003;63427;49.654;6.596;2024-02-14T09:21:25;7;6;
74880;PMS5003;63427;49.654;6.596;2024-02-14T09:31:02;8;8;
74880;PMS5003;63427;49.654;6.596;2024-02-14T09:33:28;8;8;
74880;PMS5003;63427;49.654;6.596;2024-02-14T09:50:26;6;6;
74880;PMS5003;63427;49.654;6.596;2024-02-14T09:52:51;8;8;
74880;PMS5003;63427;49.654;6.596;2024-02-14T09:55:16;7;7;
74880;PMS5003;63427;49.654;6.596;2024-02-14T09:57:42;9;9;
74880;PMS5003;63427;49.654;6.596;2024-02-14T10:00:09;9;9;
74880;PMS5003;63427;49.654;6.596;2024-02-14T10:02:33;9;9;
74880;PMS5003;63427;49.654;6.596;2024-02-14T10:05:01;8;8;
74880;PMS5003;63427;49.654;6.596;2024-02-14T10:07:25;9;8;
74880;PMS5003;63427;49.654;6.596;2024-02-14T10:09:50;10;10;
74880;PMS5003;63427;49.654;6.596;2024-02-14T10:12:15;9;9;
74880;PMS5003;63427;49.654;6.596;2024-02-14T10:14:41;11;11;
74880;PMS5003;63427;49.654;6.596;2024-02-14T10:17:06;11;11;
74880;PMS5003;63427;49.654;6.596;2024-02-14T10:19:32;9;9;
74880;PMS5003;63427;49.654;6.596;2024-02-14T10:21:57;10;10;
74880;PMS5003;63427;49.654;6.596;2024-02-14T10:24:24;8;8;
74880;PMS5003;63427;49.654;6.596;2024-02-14T10:26:48;9;9;
74880;PMS5003;63427;49.654;6.596;2024-02-14T10:29:14;12;12;
74880;PMS5003;63427;49.654;6.596;2024-02-14T10:31:40;8;7;
74880;PMS5003;63427;49.654;6.596;2024-02-14T10:34:05;10;10;
74880;PMS5003;63427;49.654;6.596;2024-02-14T10:36:30;9;9;
74880;PMS5003;63427;49.654;6.596;2024-02-14T10:38:56;8;8;
74880;PMS5003;63427;49.654;6.596;2024-02-14T10:48:38;8;7;
74880;PMS5003;63427;49.654;6.596;2024-02-14T10:51:08;11;11;
74880;PMS5003;63427;49.654;6.596;2024-02-14T10:53:29;10;9;
74880;PMS5003;63427;49.654;6.596;2024-02-14T10:55:55;8;8;
74880;PMS5003;63427;49.654;6.596;2024-02-14T10:58:20;9;9;
74880;PMS5003;63427;49.654;6.596;2024-02-14T11:00:45;9;9;
74880;PMS5003;63427;49.654;6.596;2024-02-14T11:03:11;9;8;
74880;PMS5003;63427;49.654;6.596;2024-02-14T11:12:53;7;7;
74880;PMS5003;63427;49.654;6.596;2024-02-14T11:20:19;6;6;
74880;PMS5003;63427;49.654;6.596;2024-02-14T11:32:23;5;5;
74880;PMS5003;63427;49.654;6.596;2024-02-14T11:34:41;5;5;
74880;PMS5003;63427;49.654;6.596;2024-02-14T11:37:07;8;8;
74880;PMS5003;63427;49.654;6.596;2024-02-14T11:44:24;4;4;
74880;PMS5003;63427;49.654;6.596;2024-02-14T11:56:36;4;3;
74880;PMS5003;63427;49.654;6.596;2024-02-14T11:58:55;4;4;
74880;PMS5003;63427;49.654;6.596;2024-02-14T12:03:46;5;5;
74880;PMS5003;63427;49.654;6.596;2024-02-14T12:13:30;6;6;
74880;PMS5003;63427;49.654;6.596;2024-02-14T12:15:53;5;5;
74880;PMS5003;63427;49.654;6.596;2024-02-14T12:25:35;4;4;
74880;PMS5003;63427;49.654;6.596;2024-02-14T12:28:01;4;4;
74880;PMS5003;63427;49.654;6.596;2024-02-14T12:47:24;5;5;
74880;PMS5003;63427;49.654;6.596;2024-02-14T12:52:15;4;4;
74880;PMS5003;63427;49.654;6.596;2024-02-14T12:54:41;5;5;
74880;PMS5003;63427;49.654;6.596;2024-02-14T12:57:06;4;4;
74880;PMS5003;63427;49.654;6.596;2024-02-14T13:01:56;4;4;
74880;PMS5003;63427;49.654;6.596;2024-02-14T13:04:22;5;5;
74880;PMS5003;63427;49.654;6.596;2024-02-14T13:06:47;5;5;
74880;PMS5003;63427;49.654;6.596;2024-02-14T13:09:13;3;3;
74880;PMS5003;63427;49.654;6.596;2024-02-14T13:18:54;4;4;
74880;PMS5003;63427;49.654;6.596;2024-02-14T13:23:45;3;3;
74880;PMS5003;63427;49.654;6.596;2024-02-14T13:26:11;2;2;
74880;PMS5003;63427;49.654;6.596;2024-02-14T13:28:36;3;2;
74880;PMS5003;63427;49.654;6.596;2024-02-14T13:31:02;2;2;
74880;PMS5003;63427;49.654;6.596;2024-02-14T13:33:27;4;3;
74880;PMS5003;63427;49.654;6.596;2024-02-14T13:35:58;2;2;
74880;PMS5003;63427;49.654;6.596;2024-02-14T13:38:18;2;2;
74880;PMS5003;63427;49.654;6.596;2024-02-14T13:43:09;2;2;
74880;PMS5003;63427;49.654;6.596;2024-02-14T13:45:41;2;2;
74880;PMS5003;63427;49.654;6.596;2024-02-14T13:50:26;3;3;
74880;PMS5003;63427;49.654;6.596;2024-02-14T13:52:50;2;2;
74880;PMS5003;63427;49.654;6.596;2024-02-14T13:55:16;3;3;
74880;PMS5003;63427;49.654;6.596;2024-02-14T13:57:41;2;2;
74880;PMS5003;63427;49.654;6.596;2024-02-14T14:09:48;2;2;
74880;PMS5003;63427;49.654;6.596;2024-02-14T14:12:14;3;3;
74880;PMS5003;63427;49.654;6.596;2024-02-14T14:14:39;2;2;
74880;PMS5003;63427;49.654;6.596;2024-02-14T14:17:05;4;4;
74880;PMS5003;63427;49.654;6.596;2024-02-14T14:19:30;3;2;
74880;PMS5003;63427;49.654;6.596;2024-02-14T14:21:55;4;4;
74880;PMS5003;63427;49.654;6.596;2024-02-14T14:24:23;4;4;
74880;PMS5003;63427;49.654;6.596;2024-02-14T14:26:46;3;3;
74880;PMS5003;63427;49.654;6.596;2024-02-14T14:34:02;5;5;
74880;PMS5003;63427;49.654;6.596;2024-02-14T14:36:33;4;4;
74880;PMS5003;63427;49.654;6.596;2024-02-14T14:38:54;5;5;
74880;PMS5003;63427;49.654;6.596;2024-02-14T14:43:45;4;4;
74880;PMS5003;63427;49.654;6.596;2024-02-14T14:46:09;6;6;
74880;PMS5003;63427;49.654;6.596;2024-02-14T14:51:00;4;4;
74880;PMS5003;63427;49.654;6.596;2024-02-14T15:17:40;4;4;
74880;PMS5003;63427;49.654;6.596;2024-02-14T15:20:06;4;4;
74880;PMS5003;63427;49.654;6.596;2024-02-14T15:22:31;4;4;
74880;PMS5003;63427;49.654;6.596;2024-02-14T15:24:56;5;4;
74880;PMS5003;63427;49.654;6.596;2024-02-14T15:27:22;4;4;
74880;PMS5003;63427;49.654;6.596;2024-02-14T15:29:47;4;4;
74880;PMS5003;63427;49.654;6.596;2024-02-14T15:32:13;6;6;
74880;PMS5003;63427;49.654;6.596;2024-02-14T15:34:38;4;4;
74880;PMS5003;63427;49.654;6.596;2024-02-14T15:37:03;6;6;
74880;PMS5003;63427;49.654;6.596;2024-02-14T15:39:29;5;5;
74880;PMS5003;63427;49.654;6.596;2024-02-14T15:41:55;6;6;
74880;PMS5003;63427;49.654;6.596;2024-02-14T15:44:20;6;6;
74880;PMS5003;63427;49.654;6.596;2024-02-14T15:46:45;6;6;
74880;PMS5003;63427;49.654;6.596;2024-02-14T15:49:11;5;5;
74880;PMS5003;63427;49.654;6.596;2024-02-14T15:51:36;5;4;
74880;PMS5003;63427;49.654;6.596;2024-02-14T15:54:01;5;5;
74880;PMS5003;63427;49.654;6.596;2024-02-14T15:58:52;5;5;
74880;PMS5003;63427;49.654;6.596;2024-02-14T16:01:19;4;4;
74880;PMS5003;63427;49.654;6.596;2024-02-14T16:03:43;5;5;
74880;PMS5003;63427;49.654;6.596;2024-02-14T16:06:09;4;4;
74880;PMS5003;63427;49.654;6.596;2024-02-14T16:08:34;3;3;
74880;PMS5003;63427;49.654;6.596;2024-02-14T16:10:59;5;4;
74880;PMS5003;63427;49.654;6.596;2024-02-14T16:13:25;5;5;
74880;PMS5003;63427;49.654;6.596;2024-02-14T16:15:50;6;6;
74880;PMS5003;63427;49.654;6.596;2024-02-14T16:18:16;4;4;
74880;PMS5003;63427;49.654;6.596;2024-02-14T16:20:41;4;4;
74880;PMS5003;63427;49.654;6.596;2024-02-14T16:23:12;4;4;
74880;PMS5003;63427;49.654;6.596;2024-02-14T16:25:32;4;4;
74880;PMS5003;63427;49.654;6.596;2024-02-14T16:27:58;4;4;
74880;PMS5003;63427;49.654;6.596;2024-02-14T16:30:23;5;5;
74880;PMS5003;63427;49.654;6.596;2024-02-14T16:32:49;6;6;
74880;PMS5003;63427;49.654;6.596;2024-02-14T16:35:14;3;3;
74880;PMS5003;63427;49.654;6.596;2024-02-14T16:37:40;4;4;
74880;PMS5003;63427;49.654;6.596;2024-02-14T16:40:05;6;6;
74880;PMS5003;63427;49.654;6.596;2024-02-14T16:42:30;5;5;
74880;PMS5003;63427;49.654;6.596;2024-02-14T16:44:56;6;6;
74880;PMS5003;63427;49.654;6.596;2024-02-14T16:57:03;5;5;
74880;PMS5003;63427;49.654;6.596;2024-02-14T16:59:29;7;7;
74880;PMS5003;63427;49.654;6.596;2024-02-14T17:01:54;13;13;
74880;PMS5003;63427;49.654;6.596;2024-02-14T17:04:19;7;7;
74880;PMS5003;63427;49.654;6.596;2024-02-14T17:06:45;7;6;
74880;PMS5003;63427;49.654;6.596;2024-02-14T17:11:37;6;6;
74880;PMS5003;63427;49.654;6.596;2024-02-14T17:14:06;7;6;
74880;PMS5003;63427;49.654;6.596;2024-02-14T17:16:26;6;6;
74880;PMS5003;63427;49.654;6.596;2024-02-14T17:18:52;5;5;
74880;PMS5003;63427;49.654;6.596;2024-02-14T17:21:17;6;6;
74880;PMS5003;63427;49.654;6.596;2024-02-14T17:23:42;4;4;
74880;PMS5003;63427;49.654;6.596;2024-02-14T17:26:13;7;7;
74880;PMS5003;63427;49.654;6.596;2024-02-14T17:28:34;7;7;
74880;PMS5003;63427;49.654;6.596;2024-02-14T17:52:51;6;6;
74880;PMS5003;63427;49.654;6.596;2024-02-14T17:55:13;7;7;
74880;PMS5003;63427;49.654;6.596;2024-02-14T17:57:39;8;7;
74880;PMS5003;63427;49.654;6.596;2024-02-14T18:02:30;7;7;
74880;PMS5003;63427;49.654;6.596;2024-02-14T18:04:56;8;8;
74880;PMS5003;63427;49.654;6.596;2024-02-14T18:19:28;7;7;
74880;PMS5003;63427;49.654;6.596;2024-02-14T18:24:19;11;10;
74880;PMS5003;63427;49.654;6.596;2024-02-14T18:34:00;7;7;
74880;PMS5003;63427;49.654;6.596;2024-02-14T18:36:25;9;9;
74880;PMS5003;63427;49.654;6.596;2024-02-14T18:38:51;10;9;
74880;PMS5003;63427;49.654;6.596;2024-02-14T18:41:16;9;8;
74880;PMS5003;63427;49.654;6.596;2024-02-14T18:43:41;8;8;
74880;PMS5003;63427;49.654;6.596;2024-02-14T18:46:09;10;10;
74880;PMS5003;63427;49.654;6.596;2024-02-14T18:48:32;9;9;
74880;PMS5003;63427;49.654;6.596;2024-02-14T18:50:58;9;9;
74880;PMS5003;63427;49.654;6.596;2024-02-14T18:53:24;15;15;
74880;PMS5003;63427;49.654;6.596;2024-02-14T18:55:49;8;8;
74880;PMS5003;63427;49.654;6.596;2024-02-14T18:58:15;10;10;
74880;PMS5003;63427;49.654;6.596;2024-02-14T19:00:42;9;9;
74880;PMS5003;63427;49.654;6.596;2024-02-14T19:03:05;8;8;
74880;PMS5003;63427;49.654;6.596;2024-02-14T19:05:31;12;11;
74880;PMS5003;63427;49.654;6.596;2024-02-14T19:08:05;13;13;
74880;PMS5003;63427;49.654;6.596;2024-02-14T19:24:53;12;12;
74880;PMS5003;63427;49.654;6.596;2024-02-14T19:27:20;9;9;
74880;PMS5003;63427;49.654;6.596;2024-02-14T19:32:10;8;8;
74880;PMS5003;63427;49.654;6.596;2024-02-14T19:34:35;9;9;
74880;PMS5003;63427;49.654;6.596;2024-02-14T19:37:00;8;8;
74880;PMS5003;63427;49.654;6.596;2024-02-14T20:01:22;11;9;
74880;PMS5003;63427;49.654;6.596;2024-02-14T20:03:39;9;9;
74880;PMS5003;63427;49.654;6.596;2024-02-14T20:06:05;9;9;
74880;PMS5003;63427;49.654;6.596;2024-02-14T20:08:30;8;8;
74880;PMS5003;63427;49.654;6.596;2024-02-14T20:15:47;10;9;
74880;PMS5003;63427;49.654;6.596;2024-02-14T20:18:12;17;16;
74880;PMS5003;63427;49.654;6.596;2024-02-14T20:20:38;14;14;
74880;PMS5003;63427;49.654;6.596;2024-02-14T20:23:03;14;14;
74880;PMS5003;63427;49.654;6.596;2024-02-14T20:25:28;14;12;
74880;PMS5003;63427;49.654;6.596;2024-02-14T20:27:56;11;11;
74880;PMS5003;63427;49.654;6.596;2024-02-14T20:30:20;30;29;
74880;PMS5003;63427;49.654;6.596;2024-02-14T20:32:45;7;7;
74880;PMS5003;63427;49.654;6.596;2024-02-14T20:35:10;14;14;
74880;PMS5003;63427;49.654;6.596;2024-02-14T20:37:35;13;12;
74880;PMS5003;63427;49.654;6.596;2024-02-14T20:40:00;9;9;
74880;PMS5003;63427;49.654;6.596;2024-02-14T20:42:26;10;9;
74880;PMS5003;63427;49.654;6.596;2024-02-14T20:44:52;17;17;
74880;PMS5003;63427;49.654;6.596;2024-02-14T20:56:59;13;13;
74880;PMS5003;63427;49.654;6.596;2024-02-14T20:59:24;10;10;
74880;PMS5003;63427;49.654;6.596;2024-02-14T21:01:50;16;16;
74880;PMS5003;63427;49.654;6.596;2024-02-14T21:04:15;10;10;
74880;PMS5003;63427;49.654;6.596;2024-02-14T21:06:41;12;12;
74880;PMS5003;63427;49.654;6.596;2024-02-14T21:11:31;6;6;
74880;PMS5003;63427;49.654;6.596;2024-02-14T21:13:57;7;7;
74880;PMS5003;63427;49.654;6.596;2024-02-14T21:21:13;9;9;
74880;PMS5003;63427;49.654;6.596;2024-02-14T21:23:39;10;9;
74880;PMS5003;63427;49.654;6.596;2024-02-14T21:26:04;8;8;
74880;PMS5003;63427;49.654;6.596;2024-02-14T21:28:29;11;11;
74880;PMS5003;63427;49.654;6.596;2024-02-14T21:30:55;11;10;
74880;PMS5003;63427;49.654;6.596;2024-02-14T21:33:20;7;7;
74880;PMS5003;63427;49.654;6.596;2024-02-14T21:35:51;12;12;
74880;PMS5003;63427;49.654;6.596;2024-02-14T21:38:11;8;8;
74880;PMS5003;63427;49.654;6.596;2024-02-14T21:40:36;6;6;
74880;PMS5003;63427;49.654;6.596;2024-02-14T21:43:09;10;10;
74880;PMS5003;63427;49.654;6.596;2024-02-14T21:45:27;6;6;
74880;PMS5003;63427;49.654;6.596;2024-02-14T21:47:52;8;8;
74880;PMS5003;63427;49.654;6.596;2024-02-14T21:50:18;4;4;
74880;PMS5003;63427;49.654;6.596;2024-02-14T21:55:08;8;7;
74880;PMS5003;63427;49.654;6.596;2024-02-14T21:57:34;8;8;
74880;PMS5003;63427;49.654;6.596;2024-02-14T21:59:59;6;6;
74880;PMS5003;63427;49.654;6.596;2024-02-14T22:02:24;9;9;
74880;PMS5003;63427;49.654;6.596;2024-02-14T22:04:50;10;8;
74880;PMS5003;63427;49.654;6.596;2024-02-14T22:07:15;6;6;
74880;PMS5003;63427;49.654;6.596;2024-02-14T22:09:41;6;5;
74880;PMS5003;63427;49.654;6.596;2024-02-14T22:12:06;8;8;
74880;PMS5003;63427;49.654;6.596;2024-02-14T22:14:31;5;5;
74880;PMS5003;63427;49.654;6.596;2024-02-14T22:17:02;7;7;
74880;PMS5003;63427;49.654;6.596;2024-02-14T22:19:22;8;8;
74880;PMS5003;63427;49.654;6.596;2024-02-14T22:21:47;5;5;
74880;PMS5003;63427;49.654;6.596;2024-02-14T22:24:13;8;8;
74880;PMS5003;63427;49.654;6.596;2024-02-14T22:26:38;4;4;
74880;PMS5003;63427;49.654;6.596;2024-02-14T22:29:04;8;8;
74880;PMS5003;63427;49.654;6.596;2024-02-14T22:41:11;6;6;
74880;PMS5003;63427;49.654;6.596;2024-02-14T22:43:36;6;5;
74880;PMS5003;63427;49.654;6.596;2024-02-14T22:46:01;5;4;
74880;PMS5003;63427;49.654;6.596;2024-02-14T22:48:26;6;5;
74880;PMS5003;63427;49.654;6.596;2024-02-14T22:50:52;7;7;
74880;PMS5003;63427;49.654;6.596;2024-02-14T22:53:17;5;5;
74880;PMS5003;63427;49.654;6.596;2024-02-14T22:55:43;7;7;
74880;PMS5003;63427;49.654;6.596;2024-02-14T22:58:08;6;6;
74880;PMS5003;63427;49.654;6.596;2024-02-14T23:00:33;5;5;
74880;PMS5003;63427;49.654;6.596;2024-02-14T23:02:59;5;5;
74880;PMS5003;63427;49.654;6.596;2024-02-14T23:05:24;6;6;
74880;PMS5003;63427;49.654;6.596;2024-02-14T23:07:50;7;7;
74880;PMS5003;63427;49.654;6.596;2024-02-14T23:10:15;4;3;
74880;PMS5003;63427;49.654;6.596;2024-02-14T23:12:40;4;4;
74880;PMS5003;63427;49.654;6.596;2024-02-14T23:15:14;7;6;
74880;PMS5003;63427;49.654;6.596;2024-02-14T23:17:35;5;5;
74880;PMS5003;63427;49.654;6.596;2024-02-14T23:20:01;4;4;
74880;PMS5003;63427;49.654;6.596;2024-02-14T23:22:22;5;4;
74880;PMS5003;63427;49.654;6.596;2024-02-14T23:24:47;5;5;
74880;PMS5003;63427;49.654;6.596;2024-02-14T23:29:38;4;3;
74880;PMS5003;63427;49.654;6.596;2024-02-14T23:32:04;6;5;